Time;durP1;ratioP1;P1;durP2;ratioP2;P2;SDS_P1;SDS_P2;PMS_P1;PMS_P2;Temp;Humidity;BMP_temperature;BMP_pressure;BME280_temperature;BME280_humidity;BME280_pressure;Samples;Min_cycle;Max_cycle;Signal;HPM_P1;HPM_P2
2023/01/18 00:33:40;;;;;;;4.38;1.65;;;;;;;;;;5105260;27;21484;-54
2023/01/18 00:36:10;;;;;;;2.53;0.68;;;;;;;;;;5098272;27;20052;-50
2023/01/18 00:38:36;;;;;;;5.53;0.80;;;;;;;;;;5102294;27;20483;-53
2023/01/18 00:41:03;;;;;;;3.50;2.03;;;;;;;;;;5098162;28;20051;-49
2023/01/18 00:43:39;;;;;;;4.97;0.80;;;;;;;;;;5108756;28;20071;-51
2023/01/18 00:46:13;;;;;;;2.97;0.60;;;;;;;;;;5100087;28;20128;-50
2023/01/18 00:48:41;;;;;;;3.45;2.08;;;;;;;;;;5101020;28;20058;-53
2023/01/18 00:51:08;;;;;;;3.20;1.85;;;;;;;;;;5105100;27;20772;-55
2023/01/18 00:53:36;;;;;;;4.35;2.25;;;;;;;;;;5102310;27;20517;-54
2023/01/18 00:56:07;;;;;;;2.78;2.33;;;;;;;;;;5097850;27;20153;-54
2023/01/18 00:58:36;;;;;;;4.50;0.60;;;;;;;;;;5089828;28;20043;-52
2023/01/18 01:01:03;;;;;;;2.90;1.98;;;;;;;;;;5092644;28;20044;-49
2023/01/18 01:06:43;;;;;;;3.97;2.50;;;;;;;;;;5098398;28;20043;-53
2023/01/18 01:09:09;;;;;;;2.40;1.70;;;;;;;;;;5091817;28;20838;-51
2023/01/18 01:11:36;;;;;;;4.45;2.25;;;;;;;;;;5099381;28;20055;-54
2023/01/18 01:27:50;;;;;;;4.30;0.95;;;;;;;;;;5096963;28;20422;-53
2023/01/18 01:30:17;;;;;;;;;;;;;;;;;;5095625;28;20091;-52
2023/01/18 01:32:43;;;;;;;2.10;1.73;;;;;;;;;;5101122;27;19964;-52
2023/01/18 01:35:10;;;;;;;2.60;2.40;;;;;;;;;;5078683;28;20125;-51
2023/01/18 01:37:37;;;;;;;4.07;2.85;;;;;;;;;;5083101;28;20132;-54
2023/01/18 01:40:04;;;;;;;2.53;2.15;;;;;;;;;;5083942;28;20052;-53
2023/01/18 01:42:30;;;;;;;3.05;0.50;;;;;;;;;;5088159;28;20091;-53
2023/01/18 01:44:57;;;;;;;3.88;2.90;;;;;;;;;;5083153;28;20097;-50
2023/01/18 01:47:26;;;;;;;2.97;2.10;;;;;;;;;;5084418;28;20044;-50
2023/01/18 01:49:57;;;;;;;2.30;2.05;;;;;;;;;;5078348;28;20066;-51
2023/01/18 01:52:26;;;;;;;3.47;2.50;;;;;;;;;;5089869;28;20040;-54
2023/01/18 01:54:53;;;;;;;7.65;2.17;;;;;;;;;;5087145;28;20036;-52
2023/01/18 01:57:23;;;;;;;3.83;1.90;;;;;;;;;;5077860;28;20040;-47
2023/01/18 02:00:00;;;;;;;5.65;2.63;;;;;;;;;;5087774;28;20070;-49
2023/01/18 02:02:37;;;;;;;3.80;3.45;;;;;;;;;;5087201;28;20052;-52
2023/01/18 02:05:05;;;;;;;2.97;2.08;;;;;;;;;;5077200;28;20163;-52
2023/01/18 02:07:32;;;;;;;;;;;;;;;;;;5076932;28;20067;-55
2023/01/18 02:09:59;;;;;;;3.22;1.88;;;;;;;;;;5079521;28;19935;-51
2023/01/18 02:12:26;;;;;;;2.72;0.95;;;;;;;;;;5078598;28;21453;-56
2023/01/18 02:14:53;;;;;;;1.23;0.45;;;;;;;;;;5086142;28;20032;-53
2023/01/18 02:17:34;;;;;;;1.33;0.50;;;;;;;;;;5078839;28;20586;-54
2023/01/18 02:20:20;;;;;;;0.95;0.30;;;;;;;;;;5079927;28;20071;-51
2023/01/18 02:22:53;;;;;;;1.50;0.47;;;;;;;;;;5077349;28;20044;-52
2023/01/18 02:25:32;;;;;;;2.22;1.77;;;;;;;;;;5082135;28;20166;-51
2023/01/18 02:28:05;;;;;;;2.53;0.50;;;;;;;;;;5080082;28;20040;-54
2023/01/18 02:30:35;;;;;;;4.20;2.03;;;;;;;;;;5079668;28;20894;-52
2023/01/18 02:33:12;;;;;;;2.13;1.88;;;;;;;;;;5080196;28;20143;-52
2023/01/18 02:35:50;;;;;;;1.05;0.50;;;;;;;;;;5083981;28;20044;-49
2023/01/18 02:38:19;;;;;;;2.10;1.70;;;;;;;;;;5083982;28;20040;-50
2023/01/18 02:40:46;;;;;;;1.95;0.65;;;;;;;;;;5089843;28;20063;-54
2023/01/18 02:48:47;;;;;;;2.97;2.78;;;;;;;;;;5085905;28;20043;-53
2023/01/18 02:51:14;;;;;;;1.05;0.52;;;;;;;;;;5089113;28;20411;-52
2023/01/18 02:53:42;;;;;;;2.47;1.20;;;;;;;;;;5087208;28;20032;-53
2023/01/18 02:56:08;;;;;;;;;;;;;;;;;;5088557;28;20044;-55
2023/01/18 02:58:40;;;;;;;2.45;2.13;;;;;;;;;;5089256;28;19919;-55
2023/01/18 03:01:10;;;;;;;2.17;1.98;;;;;;;;;;5084042;28;20065;-53
2023/01/18 03:03:39;;;;;;;2.25;2.05;;;;;;;;;;5088364;28;20050;-53
2023/01/18 03:06:07;;;;;;;1.55;0.50;;;;;;;;;;5084790;28;20032;-57
2023/01/18 03:08:40;;;;;;;2.33;1.75;;;;;;;;;;5084057;28;20043;-55
2023/01/18 03:11:11;;;;;;;1.95;1.75;;;;;;;;;;5089312;28;20043;-55
2023/01/18 03:13:47;;;;;;;4.53;1.90;;;;;;;;;;5083721;28;20040;-53
2023/01/18 03:16:17;;;;;;;2.58;1.67;;;;;;;;;;5084351;28;20082;-57
2023/01/18 03:18:59;;;;;;;1.70;0.70;;;;;;;;;;5092896;28;20055;-55
2023/01/18 03:21:44;;;;;;;0.85;0.40;;;;;;;;;;5084732;28;20044;-55
2023/01/18 03:24:11;;;;;;;1.60;0.60;;;;;;;;;;5083483;28;20104;-53
2023/01/18 03:26:40;;;;;;;2.25;2.05;;;;;;;;;;5081224;28;20066;-51
2023/01/18 03:34:56;;;;;;;1.73;1.63;;;;;;;;;;5087827;28;20042;-56
2023/01/18 03:37:29;;;;;;;2.15;1.95;;;;;;;;;;5084458;28;20036;-57
2023/01/18 03:39:57;;;;;;;2.15;1.95;;;;;;;;;;5084294;28;20052;-54
2023/01/18 03:42:26;;;;;;;0.88;0.47;;;;;;;;;;5082246;28;20044;-51
2023/01/18 03:44:56;;;;;;;1.90;0.40;;;;;;;;;;5084886;28;20467;-54
2023/01/18 03:47:23;;;;;;;1.42;0.30;;;;;;;;;;5083599;28;20808;-61
2023/01/18 03:49:49;;;;;;;0.98;0.40;;;;;;;;;;5088021;28;20581;-56
2023/01/18 03:52:18;;;;;;;2.20;2.08;;;;;;;;;;5086026;28;20075;-56
2023/01/18 03:54:49;;;;;;;2.25;2.05;;;;;;;;;;5085163;28;20039;-51
2023/01/18 03:57:28;;;;;;;3.58;1.95;;;;;;;;;;5083732;28;20053;-53
2023/01/18 03:59:55;;;;;;;2.50;2.20;;;;;;;;;;5085722;28;20134;-51
2023/01/18 04:02:23;;;;;;;1.52;1.40;;;;;;;;;;5084153;28;20048;-51
2023/01/18 04:04:56;;;;;;;2.10;0.50;;;;;;;;;;5081636;28;20711;-52
2023/01/18 04:07:24;;;;;;;2.28;1.95;;;;;;;;;;5090552;28;20798;-53
2023/01/18 04:09:51;;;;;;;2.35;2.15;;;;;;;;;;5087608;28;20576;-51
2023/01/18 04:12:17;;;;;;;2.47;1.73;;;;;;;;;;5086564;28;20051;-52
2023/01/18 04:14:44;;;;;;;2.15;1.80;;;;;;;;;;5084610;28;20518;-52
2023/01/18 04:17:11;;;;;;;2.80;2.33;;;;;;;;;;5085222;28;20591;-51
2023/01/18 04:19:39;;;;;;;2.13;1.77;;;;;;;;;;5086157;28;20036;-55
2023/01/18 04:22:06;;;;;;;3.53;3.22;;;;;;;;;;5088389;28;20150;-53
2023/01/18 04:24:35;;;;;;;1.95;1.70;;;;;;;;;;5082742;28;20055;-56
2023/01/18 04:27:02;;;;;;;2.53;1.98;;;;;;;;;;5087085;28;20071;-52
2023/01/18 04:29:28;;;;;;;2.42;2.22;;;;;;;;;;5088794;28;20063;-51
2023/01/18 04:31:55;;;;;;;1.67;1.52;;;;;;;;;;5085440;28;20135;-54
2023/01/18 04:34:22;;;;;;;2.15;1.67;;;;;;;;;;5082359;28;20043;-52
2023/01/18 04:36:49;;;;;;;2.45;2.25;;;;;;;;;;5084010;28;20048;-56
2023/01/18 04:39:16;;;;;;;2.10;1.85;;;;;;;;;;5084838;28;20046;-53
2023/01/18 04:41:43;;;;;;;2.20;2.00;;;;;;;;;;5082618;28;20032;-50
2023/01/18 04:44:10;;;;;;;0.50;0.30;;;;;;;;;;5083312;28;20614;-54
2023/01/18 04:46:37;;;;;;;2.92;2.05;;;;;;;;;;5086337;28;20046;-56
2023/01/18 04:49:04;;;;;;;2.08;1.60;;;;;;;;;;5083082;28;20047;-54
2023/01/18 04:51:31;;;;;;;2.35;2.15;;;;;;;;;;5082024;28;20129;-56
2023/01/18 04:53:58;;;;;;;2.15;1.80;;;;;;;;;;5084373;28;20036;-57
2023/01/18 04:56:25;;;;;;;2.30;1.98;;;;;;;;;;5083147;28;20036;-56
2023/01/18 04:58:52;;;;;;;2.20;2.00;;;;;;;;;;5084185;28;20091;-55
2023/01/18 05:01:20;;;;;;;1.92;1.67;;;;;;;;;;5082922;28;20040;-55
2023/01/18 05:03:47;;;;;;;1.52;0.55;;;;;;;;;;5083995;28;20052;-56
2023/01/18 05:06:14;;;;;;;2.53;2.33;;;;;;;;;;5083276;28;20093;-57
2023/01/18 05:08:41;;;;;;;3.67;3.42;;;;;;;;;;5085336;28;20051;-57
2023/01/18 05:11:09;;;;;;;0.93;0.30;;;;;;;;;;5085871;28;20163;-57
2023/01/18 05:13:36;;;;;;;;;;;;;;;;;;5092024;28;20039;-56
2023/01/18 05:16:04;;;;;;;2.42;2.15;;;;;;;;;;5089994;28;19924;-55
2023/01/18 05:18:31;;;;;;;3.97;1.60;;;;;;;;;;5086177;28;20399;-57
2023/01/18 05:20:58;;;;;;;3.22;0.50;;;;;;;;;;5090340;28;20040;-57
2023/01/18 05:23:25;;;;;;;5.15;1.73;;;;;;;;;;5088371;28;20052;-57
2023/01/18 05:25:52;;;;;;;0.60;0.40;;;;;;;;;;5086799;28;20036;-54
2023/01/18 05:28:19;;;;;;;1.42;0.60;;;;;;;;;;5087270;28;20966;-53
2023/01/18 05:30:48;;;;;;;1.38;0.30;;;;;;;;;;5087052;28;20069;-55
2023/01/18 05:33:18;;;;;;;1.95;1.73;;;;;;;;;;5086694;28;20797;-56
2023/01/18 05:35:47;;;;;;;0.80;0.40;;;;;;;;;;5087819;28;20058;-55
2023/01/18 05:38:14;;;;;;;2.42;2.17;;;;;;;;;;5084205;28;20036;-54
2023/01/18 05:40:41;;;;;;;2.00;0.43;;;;;;;;;;5088919;28;20526;-55
2023/01/18 05:43:08;;;;;;;1.08;0.47;;;;;;;;;;5085759;28;20510;-56
2023/01/18 05:45:35;;;;;;;2.80;1.77;;;;;;;;;;5087867;28;20047;-57
2023/01/18 05:48:02;;;;;;;1.23;0.38;;;;;;;;;;5089378;28;20052;-53
2023/01/18 05:50:29;;;;;;;;;;;;;;;;;;5087334;28;20270;-53
2023/01/18 05:52:57;;;;;;;1.33;0.47;;;;;;;;;;5090740;28;20391;-52
2023/01/18 05:55:24;;;;;;;2.80;2.25;;;;;;;;;;5084262;28;20051;-51
2023/01/18 05:57:51;;;;;;;1.55;0.50;;;;;;;;;;5083891;28;20036;-52
2023/01/18 06:00:18;;;;;;;1.90;1.75;;;;;;;;;;5087598;28;20051;-56
2023/01/18 06:02:44;;;;;;;2.60;2.05;;;;;;;;;;5091471;28;20096;-51
2023/01/18 06:05:11;;;;;;;2.33;2.13;;;;;;;;;;5089347;28;20054;-51
2023/01/18 06:07:38;;;;;;;2.63;2.42;;;;;;;;;;5084282;28;20040;-55
2023/01/18 06:10:04;;;;;;;1.55;0.50;;;;;;;;;;5088638;28;21193;-55
2023/01/18 06:12:31;;;;;;;1.50;0.40;;;;;;;;;;5088621;28;20032;-53
2023/01/18 06:14:58;;;;;;;1.33;0.50;;;;;;;;;;5088255;28;20119;-54
2023/01/18 06:17:25;;;;;;;1.98;1.75;;;;;;;;;;5084863;28;20561;-51
2023/01/18 06:19:51;;;;;;;2.75;2.30;;;;;;;;;;5088567;28;20112;-54
2023/01/18 06:22:18;;;;;;;2.83;1.80;;;;;;;;;;5082977;28;20712;-54
2023/01/18 06:24:45;;;;;;;2.00;1.77;;;;;;;;;;5087301;28;20043;-49
2023/01/18 06:27:11;;;;;;;2.58;2.17;;;;;;;;;;5088130;28;20097;-51
2023/01/18 06:29:38;;;;;;;2.63;1.92;;;;;;;;;;5090215;28;20134;-50
2023/01/18 06:32:04;;;;;;;1.00;0.40;;;;;;;;;;5087036;28;20063;-54
2023/01/18 06:34:32;;;;;;;2.17;1.83;;;;;;;;;;5085025;28;20051;-53
2023/01/18 06:36:58;;;;;;;2.00;1.70;;;;;;;;;;5085729;28;20040;-54
2023/01/18 06:39:25;;;;;;;3.38;2.10;;;;;;;;;;5088955;28;20039;-55
2023/01/18 06:41:51;;;;;;;2.47;2.10;;;;;;;;;;5087496;28;20093;-54
2023/01/18 06:44:18;;;;;;;2.17;0.50;;;;;;;;;;5083014;28;20857;-54
2023/01/18 06:46:45;;;;;;;0.82;0.40;;;;;;;;;;5089895;28;20128;-56
2023/01/18 06:49:12;;;;;;;3.20;2.03;;;;;;;;;;5084637;28;20056;-53
2023/01/18 06:51:39;;;;;;;1.15;0.50;;;;;;;;;;5082308;28;20113;-51
2023/01/18 06:54:07;;;;;;;2.88;2.67;;;;;;;;;;5080438;28;20043;-55
2023/01/18 06:56:34;;;;;;;0.70;0.40;;;;;;;;;;5093564;28;20519;-53
2023/01/18 06:59:00;;;;;;;0.47;0.30;;;;;;;;;;5077136;28;20131;-53
2023/01/18 07:01:27;;;;;;;0.65;0.40;;;;;;;;;;5077858;27;21067;-57
2023/01/18 07:03:54;;;;;;;0.90;0.60;;;;;;;;;;5078218;28;20040;-56
2023/01/18 07:06:20;;;;;;;1.38;0.40;;;;;;;;;;5077198;28;20147;-55
2023/01/18 07:08:47;;;;;;;1.88;1.77;;;;;;;;;;5077362;28;20048;-57
2023/01/18 07:11:14;;;;;;;3.17;2.97;;;;;;;;;;5079978;28;20047;-58
2023/01/18 07:13:42;;;;;;;2.53;2.33;;;;;;;;;;5079700;28;20155;-54
2023/01/18 07:16:12;;;;;;;2.65;1.67;;;;;;;;;;5078227;28;20158;-54
2023/01/18 07:18:42;;;;;;;0.70;0.30;;;;;;;;;;5081596;28;20407;-55
2023/01/18 07:21:09;;;;;;;1.70;1.60;;;;;;;;;;5074073;28;20051;-55
2023/01/18 07:23:37;;;;;;;2.22;2.13;;;;;;;;;;5084089;28;20035;-56
2023/01/18 07:26:05;;;;;;;2.03;1.83;;;;;;;;;;5076137;28;20044;-56
2023/01/18 07:28:32;;;;;;;0.45;0.30;;;;;;;;;;5082174;28;20079;-57
2023/01/18 07:30:59;;;;;;;0.60;0.32;;;;;;;;;;5074414;28;20063;-54
2023/01/18 07:33:27;;;;;;;0.95;0.52;;;;;;;;;;5078305;28;20640;-55
2023/01/18 07:35:54;;;;;;;0.32;0.30;;;;;;;;;;5080325;28;20096;-54
2023/01/18 07:38:21;;;;;;;1.15;0.45;;;;;;;;;;5078345;28;20123;-55
2023/01/18 07:40:48;;;;;;;0.63;0.40;;;;;;;;;;5080852;28;20127;-54
2023/01/18 07:43:15;;;;;;;0.30;0.30;;;;;;;;;;5076367;28;20047;-56
2023/01/18 07:45:43;;;;;;;0.60;0.40;;;;;;;;;;5080503;28;20112;-52
2023/01/18 07:48:09;;;;;;;2.45;0.70;;;;;;;;;;5074673;28;20066;-56
2023/01/18 07:50:36;;;;;;;0.65;0.63;;;;;;;;;;5074322;28;20113;-55
2023/01/18 07:53:07;;;;;;;0.60;0.60;;;;;;;;;;5078979;28;20484;-55
2023/01/18 07:55:34;;;;;;;1.05;0.90;;;;;;;;;;5079676;28;20460;-53
2023/01/18 07:58:01;;;;;;;0.77;0.77;;;;;;;;;;5074329;28;20040;-54
2023/01/18 08:00:27;;;;;;;2.05;1.95;;;;;;;;;;5080177;28;20048;-53
2023/01/18 08:02:54;;;;;;;0.47;0.47;;;;;;;;;;5075740;28;20040;-51
2023/01/18 08:05:26;;;;;;;1.92;1.83;;;;;;;;;;5076752;28;20063;-52
2023/01/18 08:07:53;;;;;;;0.63;0.57;;;;;;;;;;5082014;28;20043;-54
2023/01/18 08:10:20;;;;;;;0.57;0.35;;;;;;;;;;5079662;28;20075;-56
2023/01/18 08:12:46;;;;;;;0.80;0.38;;;;;;;;;;5080635;28;20120;-56
2023/01/18 08:15:13;;;;;;;0.43;0.32;;;;;;;;;;5081768;28;20032;-56
2023/01/18 08:17:41;;;;;;;1.25;0.90;;;;;;;;;;5079686;28;20048;-57
2023/01/18 08:20:08;;;;;;;1.02;0.65;;;;;;;;;;5079909;28;20892;-51
2023/01/18 08:22:35;;;;;;;1.35;0.47;;;;;;;;;;5083813;28;20050;-58
2023/01/18 08:25:03;;;;;;;3.60;2.42;;;;;;;;;;5081576;28;20105;-56
2023/01/18 08:27:29;;;;;;;3.55;0.40;;;;;;;;;;5084600;28;20483;-55
2023/01/18 08:29:56;;;;;;;5.32;0.50;;;;;;;;;;5081503;28;20040;-55
2023/01/18 08:32:23;;;;;;;0.75;0.40;;;;;;;;;;5076455;28;20130;-55
2023/01/18 08:34:50;;;;;;;3.03;0.35;;;;;;;;;;5075415;28;20140;-56
2023/01/18 08:37:16;;;;;;;1.58;1.45;;;;;;;;;;5074526;28;20070;-57
2023/01/18 08:39:43;;;;;;;2.10;1.58;;;;;;;;;;5079051;28;20097;-56
2023/01/18 08:42:10;;;;;;;6.57;2.72;;;;;;;;;;5077665;28;20055;-57
2023/01/18 08:44:37;;;;;;;6.70;1.77;;;;;;;;;;5081964;28;20067;-55
2023/01/18 08:47:04;;;;;;;5.40;1.25;;;;;;;;;;5082211;28;20084;-52
2023/01/18 08:49:31;;;;;;;7.20;2.10;;;;;;;;;;5082828;28;20047;-46
2023/01/18 08:51:58;;;;;;;2.97;1.92;;;;;;;;;;5084197;28;20050;-51
2023/01/18 08:54:24;;;;;;;4.78;2.28;;;;;;;;;;5081131;28;20097;-53
2023/01/18 08:56:51;;;;;;;3.45;1.83;;;;;;;;;;5078794;28;20036;-55
2023/01/18 08:59:18;;;;;;;7.28;1.77;;;;;;;;;;5084961;28;20792;-57
2023/01/18 09:01:45;;;;;;;5.65;1.98;;;;;;;;;;5081016;28;20039;-56
2023/01/18 09:04:12;;;;;;;7.05;2.70;;;;;;;;;;5081099;28;20043;-55
2023/01/18 09:06:39;;;;;;;2.45;1.15;;;;;;;;;;5081674;28;20100;-52
2023/01/18 09:09:06;;;;;;;8.57;2.17;;;;;;;;;;5078124;28;20043;-53
2023/01/18 09:11:32;;;;;;;2.15;1.48;;;;;;;;;;5081062;28;20040;-55
2023/01/18 09:14:00;;;;;;;4.07;2.33;;;;;;;;;;5079880;28;20047;-54
2023/01/18 09:16:28;;;;;;;9.85;1.75;;;;;;;;;;5079204;28;20032;-55
2023/01/18 09:18:56;;;;;;;2.90;2.55;;;;;;;;;;5081382;28;20628;-53
2023/01/18 09:21:23;;;;;;;3.30;0.50;;;;;;;;;;5081499;28;20050;-55
2023/01/18 09:23:50;;;;;;;2.22;1.88;;;;;;;;;;5079572;28;20126;-56
2023/01/18 09:26:19;;;;;;;6.30;3.67;;;;;;;;;;5083469;28;20043;-56
2023/01/18 09:28:51;;;;;;;3.13;0.55;;;;;;;;;;5075858;28;20043;-57
2023/01/18 09:31:19;;;;;;;4.22;1.45;;;;;;;;;;5077996;28;20040;-58
2023/01/18 09:33:46;;;;;;;;;;;;;;;;;;5079270;28;20698;-56
2023/01/18 09:36:22;;;;;;;3.45;2.42;;;;;;;;;;5079268;28;19926;-53
2023/01/18 09:38:49;;;;;;;2.42;0.55;;;;;;;;;;5080396;28;20048;-52
2023/01/18 09:41:28;;;;;;;2.00;0.50;;;;;;;;;;5076141;28;20075;-54
2023/01/18 09:43:57;;;;;;;1.40;0.30;;;;;;;;;;5081707;28;20051;-56
2023/01/18 09:46:24;;;;;;;2.50;2.30;;;;;;;;;;5071272;28;20951;-55
2023/01/18 09:48:54;;;;;;;2.55;1.58;;;;;;;;;;5078257;28;20168;-56
2023/01/18 09:51:22;;;;;;;2.92;1.83;;;;;;;;;;5075382;28;20548;-55
2023/01/18 09:54:01;;;;;;;2.67;2.22;;;;;;;;;;5081843;28;20052;-52
2023/01/18 09:56:31;;;;;;;2.17;1.67;;;;;;;;;;5077692;28;20040;-52
2023/01/18 09:59:12;;;;;;;2.65;2.45;;;;;;;;;;5082654;28;20051;-56
2023/01/18 10:01:39;;;;;;;1.10;0.50;;;;;;;;;;5082018;28;20111;-54
2023/01/18 10:04:35;;;;;;;2.38;2.00;;;;;;;;;;5081992;28;20051;-56
2023/01/18 10:07:05;;;;;;;0.77;0.50;;;;;;;;;;5071032;28;20047;-56
2023/01/18 10:09:38;;;;;;;2.20;1.98;;;;;;;;;;5084113;28;20633;-56
2023/01/18 10:12:27;;;;;;;2.50;2.30;;;;;;;;;;5077160;28;20051;-54
2023/01/18 10:14:57;;;;;;;3.33;3.13;;;;;;;;;;5084104;28;20699;-56
2023/01/18 10:17:27;;;;;;;3.08;1.92;;;;;;;;;;5084027;28;20072;-56
2023/01/18 10:19:54;;;;;;;1.95;1.77;;;;;;;;;;5082773;28;20163;-56
2023/01/18 10:22:24;;;;;;;4.10;2.60;;;;;;;;;;5080234;28;20043;-51
2023/01/18 10:24:54;;;;;;;2.80;1.85;;;;;;;;;;5103409;27;20063;-52
2023/01/18 10:27:39;;;;;;;2.08;0.50;;;;;;;;;;5083253;28;20101;-48
2023/01/18 10:30:13;;;;;;;2.55;1.90;;;;;;;;;;5084134;28;20831;-49
2023/01/18 10:32:42;;;;;;;7.35;3.72;;;;;;;;;;5078378;28;20044;-48
2023/01/18 10:35:16;;;;;;;1.27;0.40;;;;;;;;;;5079882;28;20602;-55
2023/01/18 10:37:46;;;;;;;5.35;1.70;;;;;;;;;;5080968;28;20089;-56
2023/01/18 10:40:13;;;;;;;3.42;1.92;;;;;;;;;;5082174;28;20043;-53
2023/01/18 10:42:45;;;;;;;2.10;1.85;;;;;;;;;;5076245;28;20051;-55
2023/01/18 10:45:16;;;;;;;3.00;1.65;;;;;;;;;;5078852;28;20051;-53
2023/01/18 10:47:43;;;;;;;4.28;0.50;;;;;;;;;;5082291;28;20626;-51
2023/01/18 10:50:14;;;;;;;6.55;3.25;;;;;;;;;;5079876;28;20121;-53
2023/01/18 10:52:41;;;;;;;1.83;0.73;;;;;;;;;;5079370;28;20514;-53
2023/01/18 10:55:15;;;;;;;2.22;1.73;;;;;;;;;;5083952;28;20032;-52
2023/01/18 10:57:46;;;;;;;2.75;1.95;;;;;;;;;;5081649;28;20123;-51
2023/01/18 11:00:33;;;;;;;3.25;2.47;;;;;;;;;;5074993;28;20055;-49
2023/01/18 11:03:01;;;;;;;1.85;1.60;;;;;;;;;;5085004;28;20063;-50
2023/01/18 11:05:32;;;;;;;2.15;1.75;;;;;;;;;;5079194;28;20050;-56
2023/01/18 11:08:31;;;;;;;2.28;1.73;;;;;;;;;;5082255;28;20040;-55
2023/01/18 11:19:21;;;;;;;7.68;1.60;;;;;;;;;;5120106;27;20231;-68
2023/01/18 11:21:49;;;;;;;9.38;1.83;;;;;;;;;;5114874;27;20040;-69
2023/01/18 11:24:23;;;;;;;3.58;1.00;;;;;;;;;;5117258;27;20134;-69
2023/01/18 11:27:08;;;;;;;4.78;1.23;;;;;;;;;;5119494;27;20042;-68
2023/01/18 11:29:40;;;;;;;5.70;1.10;;;;;;;;;;5117495;27;20050;-68
2023/01/18 11:32:14;;;;;;;4.15;1.08;;;;;;;;;;5117588;27;20046;-70
2023/01/18 11:34:45;;;;;;;4.28;1.25;;;;;;;;;;5119767;27;20051;-69
2023/01/18 11:37:30;;;;;;;3.03;1.95;;;;;;;;;;5116308;27;20680;-70
2023/01/18 11:39:57;;;;;;;5.40;1.33;;;;;;;;;;5120647;27;20027;-69
2023/01/18 11:42:23;;;;;;;7.97;1.00;;;;;;;;;;5114142;27;20050;-67
2023/01/18 11:44:50;;;;;;;3.67;1.38;;;;;;;;;;5119460;27;20123;-69
2023/01/18 11:47:24;;;;;;;7.10;1.83;;;;;;;;;;5114931;27;20039;-69
2023/01/18 11:49:56;;;;;;;9.40;1.35;;;;;;;;;;5134579;27;20039;-68
2023/01/18 11:52:26;;;;;;;6.90;1.15;;;;;;;;;;5111446;27;20051;-68
2023/01/18 11:54:56;;;;;;;6.18;1.77;;;;;;;;;;5115744;27;20150;-69
2023/01/18 11:57:26;;;;;;;3.00;1.55;;;;;;;;;;5119412;27;20059;-66
2023/01/18 11:59:53;;;;;;;4.60;0.90;;;;;;;;;;5113579;27;20070;-67
2023/01/18 12:02:39;;;;;;;3.88;1.92;;;;;;;;;;5114211;27;20794;-67
2023/01/18 12:05:11;;;;;;;4.40;1.23;;;;;;;;;;5114201;27;20115;-67
2023/01/18 12:07:46;;;;;;;6.93;2.22;;;;;;;;;;5117400;27;20480;-67
2023/01/18 12:10:20;;;;;;;5.20;1.55;;;;;;;;;;5094419;27;20035;-67
2023/01/18 12:12:47;;;;;;;;;;;;;;;;;;5116384;27;20054;-68
2023/01/18 12:15:19;;;;;;;7.35;1.92;;;;;;;;;;5113581;27;19934;-68
2023/01/18 12:18:15;;;;;;;8.25;2.75;;;;;;;;;;5098146;27;20047;-69
2023/01/18 12:21:04;;;;;;;3.95;1.40;;;;;;;;;;5098041;27;20043;-68
2023/01/18 12:23:39;;;;;;;7.78;2.30;;;;;;;;;;5119244;27;20467;-68
2023/01/18 12:26:09;;;;;;;4.30;1.48;;;;;;;;;;5114662;27;20067;-68
2023/01/18 12:28:50;;;;;;;5.72;2.05;;;;;;;;;;5112746;27;20054;-67
2023/01/18 12:31:20;;;;;;;5.53;1.00;;;;;;;;;;5102197;27;20046;-68
2023/01/18 12:34:19;;;;;;;8.57;2.13;;;;;;;;;;5103944;27;20047;-68
2023/01/18 12:37:04;;;;;;;8.32;2.42;;;;;;;;;;5078543;27;20051;-67
2023/01/18 12:39:34;;;;;;;6.25;1.70;;;;;;;;;;5086009;28;20113;-67
2023/01/18 12:42:04;;;;;;;4.55;1.55;;;;;;;;;;5100035;27;20082;-68
2023/01/18 12:44:30;;;;;;;4.80;1.35;;;;;;;;;;5101776;27;20066;-67
2023/01/18 12:47:14;;;;;;;8.50;1.70;;;;;;;;;;5100711;27;20215;-67
2023/01/18 12:49:43;;;;;;;8.52;1.50;;;;;;;;;;5104280;27;20050;-67
2023/01/18 12:52:13;;;;;;;12.95;4.90;;;;;;;;;;5081985;27;20059;-67
2023/01/18 12:54:46;;;;;;;4.88;1.42;;;;;;;;;;5103788;27;20718;-68
2023/01/18 12:57:13;;;;;;;6.00;1.60;;;;;;;;;;5102185;27;20062;-69
2023/01/18 12:59:52;;;;;;;5.38;1.60;;;;;;;;;;5101537;27;20051;-67
2023/01/18 13:02:37;;;;;;;7.13;1.73;;;;;;;;;;5096775;27;20039;-68
2023/01/18 13:05:23;;;;;;;8.57;1.52;;;;;;;;;;5103004;27;20048;-68
2023/01/18 13:07:56;;;;;;;7.65;4.15;;;;;;;;;;5096276;27;20043;-68
2023/01/18 13:10:27;;;;;;;12.10;2.53;;;;;;;;;;5094163;27;20075;-68
2023/01/18 13:12:55;;;;;;;11.70;2.55;;;;;;;;;;5098910;27;20031;-67
2023/01/18 13:15:30;;;;;;;7.65;2.50;;;;;;;;;;5101244;27;20063;-67
2023/01/18 13:18:02;;;;;;;11.02;3.20;;;;;;;;;;5095712;27;20627;-67
2023/01/18 13:20:52;;;;;;;11.18;2.15;;;;;;;;;;5100943;27;20055;-67
2023/01/18 13:23:38;;;;;;;12.13;2.80;;;;;;;;;;5103585;27;20043;-67
2023/01/18 13:26:17;;;;;;;4.72;1.23;;;;;;;;;;5100810;27;20114;-67
2023/01/18 13:28:45;;;;;;;6.65;2.08;;;;;;;;;;5101209;27;20123;-67
2023/01/18 13:31:12;;;;;;;9.98;1.27;;;;;;;;;;5084015;27;20112;-67
2023/01/18 13:33:40;;;;;;;9.02;1.90;;;;;;;;;;5080509;27;20127;-68
2023/01/18 13:36:07;;;;;;;7.68;2.28;;;;;;;;;;5099591;27;20043;-68
2023/01/18 13:38:37;;;;;;;9.63;2.42;;;;;;;;;;5105235;27;20043;-67
2023/01/18 13:41:11;;;;;;;8.35;2.53;;;;;;;;;;5104998;27;20108;-68
2023/01/18 13:43:57;;;;;;;12.70;4.03;;;;;;;;;;5097152;27;20105;-67
2023/01/18 13:46:24;;;;;;;6.72;1.73;;;;;;;;;;5102451;27;20144;-70
2023/01/18 13:49:00;;;;;;;7.70;1.38;;;;;;;;;;5106370;27;20092;-67
2023/01/18 13:51:35;;;;;;;5.75;1.10;;;;;;;;;;5104023;27;20083;-67
2023/01/18 13:54:02;;;;;;;10.18;2.10;;;;;;;;;;5099234;27;20071;-68
2023/01/18 13:56:29;;;;;;;8.43;1.30;;;;;;;;;;5102927;27;20051;-67
2023/01/18 13:59:28;;;;;;;9.25;1.63;;;;;;;;;;5103484;27;20280;-71
2023/01/18 14:02:05;;;;;;;6.72;2.38;;;;;;;;;;5082963;27;20507;-69
2023/01/18 14:04:34;;;;;;;10.18;2.65;;;;;;;;;;5102280;27;20040;-69
2023/01/18 14:07:02;;;;;;;5.40;1.23;;;;;;;;;;5099820;27;20056;-69
2023/01/18 14:09:34;;;;;;;6.68;1.75;;;;;;;;;;5101305;27;20044;-70
2023/01/18 14:12:01;;;;;;;8.35;2.35;;;;;;;;;;5101302;27;20050;-69
2023/01/18 14:14:29;;;;;;;7.57;1.42;;;;;;;;;;5098915;27;20735;-68
2023/01/18 14:16:56;;;;;;;11.32;2.42;;;;;;;;;;5099177;27;20058;-68
2023/01/18 14:19:26;;;;;;;7.22;2.67;;;;;;;;;;5105669;27;20036;-69
2023/01/18 14:22:04;;;;;;;8.52;1.80;;;;;;;;;;5102443;27;20039;-69
2023/01/18 14:24:54;;;;;;;9.27;2.30;;;;;;;;;;5098740;27;20708;-68
2023/01/18 14:27:23;;;;;;;6.88;1.55;;;;;;;;;;5081572;27;21590;-64
2023/01/18 14:29:49;;;;;;;4.30;2.88;;;;;;;;;;5098523;27;20039;-65
2023/01/18 14:32:22;;;;;;;6.20;2.08;;;;;;;;;;5103437;27;20035;-65
2023/01/18 14:34:57;;;;;;;9.88;2.67;;;;;;;;;;5100217;27;20126;-64
2023/01/18 14:37:33;;;;;;;4.93;1.45;;;;;;;;;;5099528;27;20040;-64
2023/01/18 14:40:11;;;;;;;11.05;3.05;;;;;;;;;;5101145;27;20039;-65
2023/01/18 14:42:44;;;;;;;10.82;2.92;;;;;;;;;;5100133;27;20046;-65
2023/01/18 14:45:25;;;;;;;7.50;2.70;;;;;;;;;;5099345;27;20853;-64
2023/01/18 14:47:53;;;;;;;11.60;2.28;;;;;;;;;;5102639;27;20039;-63
2023/01/18 14:50:21;;;;;;;9.15;2.38;;;;;;;;;;5100868;27;20172;-64
2023/01/18 14:52:49;;;;;;;7.05;2.65;;;;;;;;;;5096835;27;20689;-64
2023/01/18 14:55:23;;;;;;;10.82;1.10;;;;;;;;;;5094889;27;20051;-64
2023/01/18 14:57:50;;;;;;;11.98;2.30;;;;;;;;;;5097231;27;20043;-64
2023/01/18 15:00:17;;;;;;;13.88;2.63;;;;;;;;;;5099364;28;20044;-63
2023/01/18 15:02:44;;;;;;;7.90;1.95;;;;;;;;;;5102219;27;20039;-63
2023/01/18 15:05:16;;;;;;;9.73;2.80;;;;;;;;;;5097028;27;20520;-63
2023/01/18 15:07:44;;;;;;;10.77;2.33;;;;;;;;;;5100526;27;20050;-64
2023/01/18 15:10:15;;;;;;;11.32;2.83;;;;;;;;;;5097201;27;20155;-63
2023/01/18 15:12:45;;;;;;;15.73;2.67;;;;;;;;;;5095880;28;20041;-63
2023/01/18 15:15:24;;;;;;;7.22;1.38;;;;;;;;;;5097950;27;20597;-63
2023/01/18 15:17:51;;;;;;;10.32;2.25;;;;;;;;;;5096777;28;20048;-63
2023/01/18 15:20:18;;;;;;;7.65;2.83;;;;;;;;;;5092550;28;20042;-63
2023/01/18 15:22:45;;;;;;;9.43;2.67;;;;;;;;;;5089430;28;20031;-63
2023/01/18 15:25:15;;;;;;;15.00;2.60;;;;;;;;;;5097222;28;20724;-63
2023/01/18 15:27:46;;;;;;;12.10;3.00;;;;;;;;;;5098433;28;20135;-63
2023/01/18 15:30:13;;;;;;;14.70;2.97;;;;;;;;;;5096871;28;20051;-62
2023/01/18 15:32:39;;;;;;;9.68;2.17;;;;;;;;;;5096789;28;20044;-63
2023/01/18 15:35:11;;;;;;;10.55;3.00;;;;;;;;;;5098932;28;20035;-62
2023/01/18 15:37:38;;;;;;;14.52;4.30;;;;;;;;;;5093978;28;20043;-64
2023/01/18 15:40:11;;;;;;;11.75;3.25;;;;;;;;;;5100110;28;20054;-63
2023/01/18 15:42:44;;;;;;;12.55;3.50;;;;;;;;;;5087172;28;20073;-63
2023/01/18 15:45:16;;;;;;;15.23;3.60;;;;;;;;;;5095354;28;20055;-64
2023/01/18 15:47:46;;;;;;;13.30;4.10;;;;;;;;;;5093214;28;20120;-63
2023/01/18 15:50:18;;;;;;;7.43;2.90;;;;;;;;;;5089195;28;20143;-63
2023/01/18 15:52:45;;;;;;;14.52;3.38;;;;;;;;;;5095023;28;20035;-64
2023/01/18 15:55:37;;;;;;;34.38;12.77;;;;;;;;;;5094734;28;20048;-63
2023/01/18 15:58:07;;;;;;;23.40;9.82;;;;;;;;;;5088543;28;20046;-64
2023/01/18 16:00:39;;;;;;;13.55;4.30;;;;;;;;;;5093503;28;20038;-62
2023/01/18 16:03:27;;;;;;;10.55;3.88;;;;;;;;;;5092990;28;20122;-62
2023/01/18 16:05:59;;;;;;;11.48;2.38;;;;;;;;;;5096988;27;20043;-61
2023/01/18 16:08:26;;;;;;;10.55;2.30;;;;;;;;;;5096699;27;20047;-62
2023/01/18 16:10:54;;;;;;;7.35;2.88;;;;;;;;;;5098398;27;20135;-62